sensor_id;sensor_type;location;lat;lon;timestamp;P1;durP1;ratioP1;P2;durP2;ratioP2
25687;SDS011;17407;51.120;3.702;2022-09-21T00:18:22;14.30;;;9.48;;
25687;SDS011;17407;51.120;3.702;2022-09-21T00:21:32;12.30;;;9.10;;
25687;SDS011;17407;51.120;3.702;2022-09-21T00:24:42;15.48;;;8.63;;
25687;SDS011;17407;51.120;3.702;2022-09-21T00:27:51;11.38;;;9.77;;
25687;SDS011;17407;51.120;3.702;2022-09-21T00:31:05;16.27;;;9.57;;
25687;SDS011;17407;51.120;3.702;2022-09-21T00:34:14;10.60;;;8.10;;
25687;SDS011;17407;51.120;3.702;2022-09-21T00:37:25;8.50;;;5.90;;
25687;SDS011;17407;51.120;3.702;2022-09-21T00:40:36;8.85;;;7.00;;
25687;SDS011;17407;51.120;3.702;2022-09-21T00:43:46;10.63;;;8.00;;
25687;SDS011;17407;51.120;3.702;2022-09-21T00:46:57;13.25;;;9.52;;
25687;SDS011;17407;51.120;3.702;2022-09-21T00:50:14;14.57;;;10.27;;
25687;SDS011;17407;51.120;3.702;2022-09-21T00:53:24;14.60;;;9.25;;
25687;SDS011;17407;51.120;3.702;2022-09-21T00:56:33;13.63;;;9.85;;
25687;SDS011;17407;51.120;3.702;2022-09-21T00:59:44;10.25;;;8.68;;
25687;SDS011;17407;51.120;3.702;2022-09-21T01:02:54;16.35;;;8.48;;
25687;SDS011;17407;51.120;3.702;2022-09-21T01:06:04;9.90;;;7.18;;
25687;SDS011;17407;51.120;3.702;2022-09-21T01:09:14;13.82;;;9.82;;
25687;SDS011;17407;51.120;3.702;2022-09-21T01:15:36;14.35;;;9.65;;
25687;SDS011;17407;51.120;3.702;2022-09-21T02:05:53;13.52;;;8.82;;
25687;SDS011;17407;51.120;3.702;2022-09-21T02:09:02;17.45;;;9.50;;
25687;SDS011;17407;51.120;3.702;2022-09-21T02:12:12;15.82;;;9.55;;
25687;SDS011;17407;51.120;3.702;2022-09-21T02:15:22;11.43;;;8.48;;
25687;SDS011;17407;51.120;3.702;2022-09-21T02:21:55;12.20;;;8.55;;
25687;SDS011;17407;51.120;3.702;2022-09-21T02:25:11;7.60;;;6.82;;
25687;SDS011;17407;51.120;3.702;2022-09-21T02:31:52;9.20;;;6.93;;
25687;SDS011;17407;51.120;3.702;2022-09-21T02:44:46;5.70;;;4.93;;
25687;SDS011;17407;51.120;3.702;2022-09-21T02:48:04;13.20;;;5.68;;
25687;SDS011;17407;51.120;3.702;2022-09-21T02:51:17;12.98;;;5.90;;
25687;SDS011;17407;51.120;3.702;2022-09-21T02:54:28;13.13;;;7.15;;
25687;SDS011;17407;51.120;3.702;2022-09-21T02:57:39;9.98;;;6.93;;
25687;SDS011;17407;51.120;3.702;2022-09-21T03:00:49;11.95;;;8.23;;
25687;SDS011;17407;51.120;3.702;2022-09-21T03:03:23;10.75;;;8.07;;
25687;SDS011;17407;51.120;3.702;2022-09-21T03:05:51;19.23;;;8.45;;
25687;SDS011;17407;51.120;3.702;2022-09-21T03:08:18;11.90;;;8.60;;
25687;SDS011;17407;51.120;3.702;2022-09-21T03:10:45;13.38;;;8.52;;
25687;SDS011;17407;51.120;3.702;2022-09-21T03:13:13;10.48;;;8.02;;
25687;SDS011;17407;51.120;3.702;2022-09-21T03:15:39;12.70;;;8.25;;
25687;SDS011;17407;51.120;3.702;2022-09-21T03:18:05;17.10;;;9.25;;
25687;SDS011;17407;51.120;3.702;2022-09-21T03:20:36;12.95;;;8.63;;
25687;SDS011;17407;51.120;3.702;2022-09-21T03:23:03;10.00;;;7.85;;
25687;SDS011;17407;51.120;3.702;2022-09-21T03:25:29;14.32;;;8.30;;
25687;SDS011;17407;51.120;3.702;2022-09-21T03:27:55;12.43;;;8.05;;
25687;SDS011;17407;51.120;3.702;2022-09-21T03:30:22;11.95;;;9.27;;
25687;SDS011;17407;51.120;3.702;2022-09-21T04:29:34;11.30;;;7.43;;
25687;SDS011;17407;51.120;3.702;2022-09-21T04:32:43;9.68;;;7.13;;
25687;SDS011;17407;51.120;3.702;2022-09-21T04:35:53;11.75;;;7.85;;
25687;SDS011;17407;51.120;3.702;2022-09-21T04:39:03;13.57;;;8.40;;
25687;SDS011;17407;51.120;3.702;2022-09-21T04:42:13;11.63;;;7.13;;
25687;SDS011;17407;51.120;3.702;2022-09-21T04:45:23;11.23;;;7.93;;
25687;SDS011;17407;51.120;3.702;2022-09-21T04:48:33;7.40;;;6.18;;
25687;SDS011;17407;51.120;3.702;2022-09-21T04:51:41;9.68;;;7.15;;
25687;SDS011;17407;51.120;3.702;2022-09-21T04:54:50;10.32;;;7.75;;
25687;SDS011;17407;51.120;3.702;2022-09-21T04:58:01;15.20;;;8.32;;
25687;SDS011;17407;51.120;3.702;2022-09-21T05:01:10;11.43;;;8.27;;
25687;SDS011;17407;51.120;3.702;2022-09-21T05:04:36;11.55;;;8.38;;
25687;SDS011;17407;51.120;3.702;2022-09-21T05:07:45;11.02;;;7.75;;
25687;SDS011;17407;51.120;3.702;2022-09-21T05:10:55;12.10;;;8.13;;
25687;SDS011;17407;51.120;3.702;2022-09-21T05:14:05;11.25;;;8.13;;
25687;SDS011;17407;51.120;3.702;2022-09-21T05:17:13;12.45;;;8.43;;
25687;SDS011;17407;51.120;3.702;2022-09-21T05:20:23;12.98;;;8.50;;
25687;SDS011;17407;51.120;3.702;2022-09-21T05:23:33;12.38;;;8.57;;
25687;SDS011;17407;51.120;3.702;2022-09-21T05:48:39;8.80;;;6.55;;
25687;SDS011;17407;51.120;3.702;2022-09-21T05:55:08;9.25;;;7.85;;
25687;SDS011;17407;51.120;3.702;2022-09-21T06:01:56;10.13;;;7.43;;
25687;SDS011;17407;51.120;3.702;2022-09-21T06:05:20;10.60;;;7.65;;
25687;SDS011;17407;51.120;3.702;2022-09-21T06:08:30;13.55;;;8.23;;
25687;SDS011;17407;51.120;3.702;2022-09-21T06:11:38;12.65;;;7.78;;
25687;SDS011;17407;51.120;3.702;2022-09-21T06:14:48;12.85;;;9.50;;
25687;SDS011;17407;51.120;3.702;2022-09-21T06:17:58;13.57;;;10.10;;
25687;SDS011;17407;51.120;3.702;2022-09-21T06:21:08;12.98;;;9.70;;
25687;SDS011;17407;51.120;3.702;2022-09-21T06:24:18;13.73;;;8.25;;
25687;SDS011;17407;51.120;3.702;2022-09-21T06:27:28;17.73;;;9.63;;
25687;SDS011;17407;51.120;3.702;2022-09-21T06:30:38;14.98;;;9.23;;
25687;SDS011;17407;51.120;3.702;2022-09-21T06:33:47;13.15;;;9.93;;
25687;SDS011;17407;51.120;3.702;2022-09-21T06:36:57;13.25;;;8.10;;
25687;SDS011;17407;51.120;3.702;2022-09-21T06:40:07;11.73;;;7.57;;
25687;SDS011;17407;51.120;3.702;2022-09-21T06:46:44;11.70;;;8.77;;
25687;SDS011;17407;51.120;3.702;2022-09-21T06:49:54;17.85;;;9.30;;
25687;SDS011;17407;51.120;3.702;2022-09-21T06:53:03;15.77;;;9.75;;
25687;SDS011;17407;51.120;3.702;2022-09-21T06:56:13;14.07;;;9.23;;
25687;SDS011;17407;51.120;3.702;2022-09-21T06:59:21;13.52;;;9.23;;
25687;SDS011;17407;51.120;3.702;2022-09-21T07:02:31;13.95;;;10.25;;
25687;SDS011;17407;51.120;3.702;2022-09-21T07:05:54;16.13;;;10.20;;
25687;SDS011;17407;51.120;3.702;2022-09-21T07:09:03;15.88;;;10.50;;
25687;SDS011;17407;51.120;3.702;2022-09-21T07:12:13;16.15;;;11.75;;
25687;SDS011;17407;51.120;3.702;2022-09-21T07:15:22;15.82;;;11.90;;
25687;SDS011;17407;51.120;3.702;2022-09-21T07:18:30;17.13;;;12.32;;
25687;SDS011;17407;51.120;3.702;2022-09-21T07:21:39;19.88;;;13.75;;
25687;SDS011;17407;51.120;3.702;2022-09-21T07:24:49;20.52;;;15.40;;
25687;SDS011;17407;51.120;3.702;2022-09-21T07:27:59;23.67;;;17.77;;
25687;SDS011;17407;51.120;3.702;2022-09-21T07:31:10;21.52;;;15.02;;
25687;SDS011;17407;51.120;3.702;2022-09-21T07:34:35;23.35;;;14.60;;
25687;SDS011;17407;51.120;3.702;2022-09-21T07:37:45;25.60;;;17.75;;
25687;SDS011;17407;51.120;3.702;2022-09-21T07:40:53;29.23;;;19.20;;
25687;SDS011;17407;51.120;3.702;2022-09-21T07:44:03;35.20;;;19.80;;
25687;SDS011;17407;51.120;3.702;2022-09-21T07:47:13;34.20;;;20.90;;
25687;SDS011;17407;51.120;3.702;2022-09-21T07:50:24;27.88;;;18.63;;
25687;SDS011;17407;51.120;3.702;2022-09-21T07:53:33;36.55;;;19.58;;
25687;SDS011;17407;51.120;3.702;2022-09-21T07:56:42;39.72;;;20.42;;
25687;SDS011;17407;51.120;3.702;2022-09-21T07:59:53;32.30;;;20.38;;
25687;SDS011;17407;51.120;3.702;2022-09-21T08:03:02;32.47;;;18.17;;
25687;SDS011;17407;51.120;3.702;2022-09-21T08:05:28;30.17;;;19.00;;
25687;SDS011;17407;51.120;3.702;2022-09-21T09:28:13;7.63;;;3.40;;
25687;SDS011;17407;51.120;3.702;2022-09-21T09:31:34;8.30;;;3.60;;
25687;SDS011;17407;51.120;3.702;2022-09-21T09:35:04;9.48;;;3.38;;
25687;SDS011;17407;51.120;3.702;2022-09-21T09:47:45;15.05;;;4.35;;
25687;SDS011;17407;51.120;3.702;2022-09-21T09:50:58;11.90;;;5.07;;
25687;SDS011;17407;51.120;3.702;2022-09-21T09:54:12;11.93;;;3.63;;
25687;SDS011;17407;51.120;3.702;2022-09-21T10:03:46;8.52;;;4.28;;
25687;SDS011;17407;51.120;3.702;2022-09-21T10:07:17;10.48;;;3.58;;
25687;SDS011;17407;51.120;3.702;2022-09-21T10:13:37;11.77;;;4.30;;
25687;SDS011;17407;51.120;3.702;2022-09-21T10:16:47;8.32;;;4.28;;
25687;SDS011;17407;51.120;3.702;2022-09-21T10:19:59;9.13;;;4.43;;
25687;SDS011;17407;51.120;3.702;2022-09-21T10:23:08;11.80;;;4.00;;
25687;SDS011;17407;51.120;3.702;2022-09-21T10:26:21;9.18;;;3.60;;
25687;SDS011;17407;51.120;3.702;2022-09-21T10:29:52;8.38;;;3.65;;
25687;SDS011;17407;51.120;3.702;2022-09-21T10:33:00;8.52;;;2.80;;
25687;SDS011;17407;51.120;3.702;2022-09-21T10:36:20;6.90;;;3.25;;
25687;SDS011;17407;51.120;3.702;2022-09-21T10:39:33;7.35;;;3.70;;
25687;SDS011;17407;51.120;3.702;2022-09-21T10:46:11;5.60;;;2.60;;
25687;SDS011;17407;51.120;3.702;2022-09-21T10:49:22;7.15;;;3.78;;
25687;SDS011;17407;51.120;3.702;2022-09-21T10:52:33;9.18;;;2.90;;
25687;SDS011;17407;51.120;3.702;2022-09-21T11:05:41;8.02;;;3.63;;
25687;SDS011;17407;51.120;3.702;2022-09-21T11:09:00;8.80;;;3.90;;
25687;SDS011;17407;51.120;3.702;2022-09-21T11:28:25;4.63;;;2.47;;
25687;SDS011;17407;51.120;3.702;2022-09-21T11:38:11;6.10;;;2.03;;
25687;SDS011;17407;51.120;3.702;2022-09-21T11:44:34;5.32;;;2.58;;
25687;SDS011;17407;51.120;3.702;2022-09-21T11:55:03;8.30;;;4.43;;
25687;SDS011;17407;51.120;3.702;2022-09-21T12:02:09;8.57;;;4.13;;
25687;SDS011;17407;51.120;3.702;2022-09-21T12:08:53;8.40;;;3.08;;
25687;SDS011;17407;51.120;3.702;2022-09-21T12:18:45;10.85;;;3.60;;
25687;SDS011;17407;51.120;3.702;2022-09-21T12:25:40;7.20;;;2.78;;
25687;SDS011;17407;51.120;3.702;2022-09-21T12:28:51;6.23;;;2.70;;
25687;SDS011;17407;51.120;3.702;2022-09-21T12:38:33;5.05;;;2.60;;
25687;SDS011;17407;51.120;3.702;2022-09-21T12:41:58;11.50;;;3.80;;
25687;SDS011;17407;51.120;3.702;2022-09-21T12:45:20;11.02;;;3.30;;
25687;SDS011;17407;51.120;3.702;2022-09-21T12:48:34;6.55;;;2.80;;
25687;SDS011;17407;51.120;3.702;2022-09-21T12:51:47;8.55;;;3.50;;
25687;SDS011;17407;51.120;3.702;2022-09-21T12:58:26;5.15;;;3.05;;
25687;SDS011;17407;51.120;3.702;2022-09-21T13:04:54;10.23;;;4.00;;
25687;SDS011;17407;51.120;3.702;2022-09-21T13:50:39;7.10;;;2.75;;
25687;SDS011;17407;51.120;3.702;2022-09-21T13:53:52;7.93;;;2.60;;
25687;SDS011;17407;51.120;3.702;2022-09-21T13:57:04;6.97;;;2.88;;
25687;SDS011;17407;51.120;3.702;2022-09-21T14:06:40;6.28;;;2.58;;
25687;SDS011;17407;51.120;3.702;2022-09-21T14:09:55;8.40;;;2.75;;
25687;SDS011;17407;51.120;3.702;2022-09-21T14:13:06;6.40;;;2.83;;
25687;SDS011;17407;51.120;3.702;2022-09-21T14:23:09;7.72;;;2.88;;
25687;SDS011;17407;51.120;3.702;2022-09-21T14:29:49;9.48;;;3.05;;
25687;SDS011;17407;51.120;3.702;2022-09-21T14:36:11;7.97;;;2.55;;
25687;SDS011;17407;51.120;3.702;2022-09-21T14:39:39;6.60;;;2.50;;
25687;SDS011;17407;51.120;3.702;2022-09-21T14:42:50;3.40;;;1.70;;
25687;SDS011;17407;51.120;3.702;2022-09-21T14:59:05;5.03;;;1.65;;
25687;SDS011;17407;51.120;3.702;2022-09-21T15:02:21;7.13;;;1.67;;
25687;SDS011;17407;51.120;3.702;2022-09-21T15:05:49;4.72;;;1.67;;
25687;SDS011;17407;51.120;3.702;2022-09-21T15:12:13;5.13;;;1.67;;
25687;SDS011;17407;51.120;3.702;2022-09-21T15:18:40;8.07;;;2.10;;
25687;SDS011;17407;51.120;3.702;2022-09-21T15:21:51;6.85;;;3.50;;
25687;SDS011;17407;51.120;3.702;2022-09-21T15:25:02;4.22;;;1.60;;
25687;SDS011;17407;51.120;3.702;2022-09-21T15:28:11;5.82;;;1.38;;
25687;SDS011;17407;51.120;3.702;2022-09-21T15:31:21;4.20;;;1.05;;
25687;SDS011;17407;51.120;3.702;2022-09-21T15:34:31;4.75;;;1.92;;
25687;SDS011;17407;51.120;3.702;2022-09-21T15:37:41;3.25;;;1.20;;
25687;SDS011;17407;51.120;3.702;2022-09-21T15:40:50;3.70;;;1.33;;
25687;SDS011;17407;51.120;3.702;2022-09-21T15:47:28;4.00;;;1.10;;
25687;SDS011;17407;51.120;3.702;2022-09-21T15:50:37;7.05;;;1.33;;
25687;SDS011;17407;51.120;3.702;2022-09-21T15:53:49;5.28;;;1.67;;
25687;SDS011;17407;51.120;3.702;2022-09-21T15:56:59;4.38;;;1.15;;
25687;SDS011;17407;51.120;3.702;2022-09-21T16:03:24;7.25;;;2.17;;
25687;SDS011;17407;51.120;3.702;2022-09-21T16:06:35;5.65;;;2.40;;
25687;SDS011;17407;51.120;3.702;2022-09-21T16:10:55;5.35;;;2.53;;
25687;SDS011;17407;51.120;3.702;2022-09-21T16:13:39;5.55;;;2.60;;
25687;SDS011;17407;51.120;3.702;2022-09-21T16:17:52;3.13;;;2.15;;
25687;SDS011;17407;51.120;3.702;2022-09-21T16:20:36;10.38;;;2.67;;
25687;SDS011;17407;51.120;3.702;2022-09-21T16:23:47;7.22;;;4.22;;
25687;SDS011;17407;51.120;3.702;2022-09-21T16:26:58;8.88;;;5.10;;
25687;SDS011;17407;51.120;3.702;2022-09-21T16:30:15;3.88;;;1.70;;
25687;SDS011;17407;51.120;3.702;2022-09-21T16:36:43;5.97;;;1.65;;
25687;SDS011;17407;51.120;3.702;2022-09-21T16:39:53;3.40;;;1.45;;
25687;SDS011;17407;51.120;3.702;2022-09-21T16:43:02;2.13;;;1.15;;
25687;SDS011;17407;51.120;3.702;2022-09-21T17:15:18;4.28;;;2.10;;
25687;SDS011;17407;51.120;3.702;2022-09-21T17:18:26;6.80;;;2.35;;
25687;SDS011;17407;51.120;3.702;2022-09-21T17:21:36;8.30;;;2.10;;
25687;SDS011;17407;51.120;3.702;2022-09-21T17:24:47;7.93;;;2.20;;
25687;SDS011;17407;51.120;3.702;2022-09-21T17:27:56;4.45;;;2.00;;
25687;SDS011;17407;51.120;3.702;2022-09-21T17:31:08;4.95;;;2.35;;
25687;SDS011;17407;51.120;3.702;2022-09-21T17:34:18;5.00;;;2.30;;
25687;SDS011;17407;51.120;3.702;2022-09-21T17:37:27;6.32;;;2.35;;
25687;SDS011;17407;51.120;3.702;2022-09-21T17:40:37;8.77;;;2.35;;
25687;SDS011;17407;51.120;3.702;2022-09-21T17:47:08;5.05;;;2.17;;
25687;SDS011;17407;51.120;3.702;2022-09-21T17:50:17;5.43;;;2.35;;
25687;SDS011;17407;51.120;3.702;2022-09-21T17:53:28;6.75;;;2.47;;
25687;SDS011;17407;51.120;3.702;2022-09-21T17:56:41;9.23;;;2.60;;
25687;SDS011;17407;51.120;3.702;2022-09-21T17:59:52;7.43;;;2.50;;
25687;SDS011;17407;51.120;3.702;2022-09-21T18:03:08;8.52;;;2.55;;
25687;SDS011;17407;51.120;3.702;2022-09-21T18:05:42;6.22;;;2.55;;
25687;SDS011;17407;51.120;3.702;2022-09-21T18:08:07;13.80;;;3.17;;
25687;SDS011;17407;51.120;3.702;2022-09-21T18:10:33;6.63;;;2.55;;
25687;SDS011;17407;51.120;3.702;2022-09-21T18:15:33;6.10;;;3.13;;
25687;SDS011;17407;51.120;3.702;2022-09-21T18:20:55;10.18;;;2.97;;
25687;SDS011;17407;51.120;3.702;2022-09-21T18:26:12;7.65;;;3.20;;
25687;SDS011;17407;51.120;3.702;2022-09-21T18:28:44;7.97;;;2.97;;
25687;SDS011;17407;51.120;3.702;2022-09-21T18:31:42;10.20;;;3.25;;
25687;SDS011;17407;51.120;3.702;2022-09-21T18:37:43;7.00;;;2.88;;
25687;SDS011;17407;51.120;3.702;2022-09-21T18:40:31;5.32;;;2.80;;
25687;SDS011;17407;51.120;3.702;2022-09-21T18:43:17;5.45;;;3.08;;
25687;SDS011;17407;51.120;3.702;2022-09-21T18:46:12;9.23;;;4.95;;
25687;SDS011;17407;51.120;3.702;2022-09-21T18:54:48;11.43;;;4.60;;
25687;SDS011;17407;51.120;3.702;2022-09-21T18:57:15;7.28;;;4.82;;
25687;SDS011;17407;51.120;3.702;2022-09-21T19:24:58;10.38;;;5.40;;
25687;SDS011;17407;51.120;3.702;2022-09-21T19:31:26;14.02;;;5.40;;
25687;SDS011;17407;51.120;3.702;2022-09-21T19:34:35;9.18;;;5.90;;
25687;SDS011;17407;51.120;3.702;2022-09-21T19:37:45;8.95;;;5.80;;
25687;SDS011;17407;51.120;3.702;2022-09-21T19:41:03;7.03;;;5.32;;
25687;SDS011;17407;51.120;3.702;2022-09-21T19:50:53;9.63;;;6.15;;
25687;SDS011;17407;51.120;3.702;2022-09-21T19:54:08;10.15;;;6.18;;
25687;SDS011;17407;51.120;3.702;2022-09-21T19:57:20;12.05;;;5.55;;
25687;SDS011;17407;51.120;3.702;2022-09-21T20:00:30;5.78;;;5.07;;
25687;SDS011;17407;51.120;3.702;2022-09-21T20:05:58;7.90;;;6.18;;
25687;SDS011;17407;51.120;3.702;2022-09-21T20:14:21;12.35;;;5.38;;
25687;SDS011;17407;51.120;3.702;2022-09-21T20:17:18;13.55;;;4.97;;
25687;SDS011;17407;51.120;3.702;2022-09-21T20:23:10;11.35;;;5.90;;
25687;SDS011;17407;51.120;3.702;2022-09-21T20:29:06;10.07;;;5.95;;
25687;SDS011;17407;51.120;3.702;2022-09-21T21:53:19;8.52;;;6.78;;
25687;SDS011;17407;51.120;3.702;2022-09-21T21:56:29;7.45;;;6.10;;
25687;SDS011;17407;51.120;3.702;2022-09-21T21:59:38;11.43;;;6.35;;
25687;SDS011;17407;51.120;3.702;2022-09-21T22:02:48;10.95;;;7.40;;
25687;SDS011;17407;51.120;3.702;2022-09-21T22:05:57;8.25;;;6.35;;
25687;SDS011;17407;51.120;3.702;2022-09-21T22:09:07;9.85;;;7.18;;
25687;SDS011;17407;51.120;3.702;2022-09-21T22:12:17;8.80;;;6.90;;
25687;SDS011;17407;51.120;3.702;2022-09-21T22:15:27;10.70;;;7.28;;
25687;SDS011;17407;51.120;3.702;2022-09-21T22:18:36;13.93;;;7.43;;
25687;SDS011;17407;51.120;3.702;2022-09-21T22:21:46;13.60;;;7.93;;
25687;SDS011;17407;51.120;3.702;2022-09-21T22:24:55;11.70;;;7.57;;
25687;SDS011;17407;51.120;3.702;2022-09-21T22:28:04;9.80;;;7.30;;
25687;SDS011;17407;51.120;3.702;2022-09-21T22:31:15;11.70;;;7.47;;
25687;SDS011;17407;51.120;3.702;2022-09-21T22:34:26;6.82;;;4.85;;
25687;SDS011;17407;51.120;3.702;2022-09-21T22:37:35;10.60;;;6.40;;
25687;SDS011;17407;51.120;3.702;2022-09-21T22:40:43;8.55;;;6.70;;
25687;SDS011;17407;51.120;3.702;2022-09-21T22:43:53;9.63;;;6.93;;
25687;SDS011;17407;51.120;3.702;2022-09-21T22:47:02;9.02;;;7.30;;
25687;SDS011;17407;51.120;3.702;2022-09-21T23:34:05;8.13;;;6.97;;
25687;SDS011;17407;51.120;3.702;2022-09-21T23:37:15;8.82;;;6.53;;
25687;SDS011;17407;51.120;3.702;2022-09-21T23:40:25;9.43;;;7.63;;
25687;SDS011;17407;51.120;3.702;2022-09-21T23:43:34;8.38;;;6.53;;
25687;SDS011;17407;51.120;3.702;2022-09-21T23:46:43;11.55;;;7.90;;
25687;SDS011;17407;51.120;3.702;2022-09-21T23:49:53;14.50;;;7.10;;
25687;SDS011;17407;51.120;3.702;2022-09-21T23:53:01;8.57;;;6.88;;
25687;SDS011;17407;51.120;3.702;2022-09-21T23:56:15;8.38;;;6.50;;
25687;SDS011;17407;51.120;3.702;2022-09-21T23:59:25;7.10;;;6.40;;
